Time;durP1;ratioP1;P1;durP2;ratioP2;P2;SDS_P1;SDS_P2;PMS_P1;PMS_P2;Temp;Humidity;BMP_temperature;BMP_pressure;BME280_temperature;BME280_humidity;BME280_pressure;Samples;Min_cycle;Max_cycle;Signal;HPM_P1;HPM_P2
2020/12/28 00:01:53;;;;;;;0.43;0.40;;;19.50;42.70;;;;;;5202990;28;20048;-76
2020/12/28 00:04:23;;;;;;;0.50;0.47;;;19.50;42.70;;;;;;5204272;28;20032;-76
2020/12/28 00:06:54;;;;;;;0.40;0.40;;;19.50;42.70;;;;;;5203852;28;20021;-76
2020/12/28 00:09:24;;;;;;;0.70;0.60;;;19.50;42.80;;;;;;5204174;28;20041;-76
2020/12/28 00:11:55;;;;;;;0.60;0.50;;;19.50;42.70;;;;;;5203349;28;20026;-76
2020/12/28 00:14:26;;;;;;;0.70;0.50;;;19.50;42.70;;;;;;5204326;28;20049;-76
2020/12/28 00:16:56;;;;;;;1.08;0.60;;;19.50;42.70;;;;;;5203023;28;20595;-76
2020/12/28 00:19:27;;;;;;;0.43;0.43;;;19.50;42.80;;;;;;5187595;28;20488;-76
2020/12/28 00:21:57;;;;;;;0.65;0.40;;;19.50;42.80;;;;;;5203089;28;20041;-76
2020/12/28 00:24:28;;;;;;;0.60;0.52;;;19.50;42.70;;;;;;5203611;28;20544;-76
2020/12/28 00:26:58;;;;;;;0.82;0.50;;;19.50;42.80;;;;;;5203344;28;20053;-76
2020/12/28 00:29:29;;;;;;;0.40;0.40;;;19.50;42.80;;;;;;5203969;28;20026;-76
2020/12/28 00:31:59;;;;;;;0.60;0.57;;;19.50;42.80;;;;;;5218322;28;20056;-76
2020/12/28 00:34:30;;;;;;;0.40;0.40;;;19.50;42.80;;;;;;5207721;28;20055;-77
2020/12/28 00:37:00;;;;;;;0.60;0.50;;;19.50;42.90;;;;;;5207042;28;20478;-76
2020/12/28 00:39:31;;;;;;;0.30;0.30;;;19.50;42.90;;;;;;5224451;28;20029;-76
2020/12/28 00:42:01;;;;;;;0.30;0.30;;;19.50;42.90;;;;;;5216146;28;20087;-76
2020/12/28 00:44:32;;;;;;;0.40;0.40;;;19.50;42.90;;;;;;5187248;28;20013;-76
2020/12/28 00:47:02;;;;;;;0.40;0.40;;;19.50;42.90;;;;;;5185760;28;20041;-76
2020/12/28 00:49:33;;;;;;;0.63;0.50;;;19.50;43.00;;;;;;5187148;28;20052;-76
2020/12/28 00:52:03;;;;;;;0.38;0.38;;;19.50;42.90;;;;;;5194046;28;20032;-76
2020/12/28 00:54:34;;;;;;;0.38;0.30;;;19.50;42.90;;;;;;5207416;28;20115;-76
2020/12/28 00:57:04;;;;;;;0.50;0.40;;;19.50;42.90;;;;;;5206769;28;20033;-76
2020/12/28 00:59:35;;;;;;;0.50;0.50;;;19.50;42.90;;;;;;5207323;28;20480;-76
2020/12/28 01:02:05;;;;;;;0.40;0.40;;;19.50;42.90;;;;;;5206204;28;20031;-76
2020/12/28 01:04:36;;;;;;;0.40;0.30;;;19.50;42.80;;;;;;5207629;28;20438;-76
2020/12/28 01:07:06;;;;;;;0.50;0.40;;;19.50;42.80;;;;;;5206783;28;20116;-75
2020/12/28 01:09:37;;;;;;;0.47;0.40;;;19.50;42.80;;;;;;5207335;28;20033;-75
2020/12/28 01:12:07;;;;;;;0.68;0.30;;;19.50;42.80;;;;;;5214736;28;20045;-76
2020/12/28 01:14:38;;;;;;;0.30;0.30;;;19.50;42.80;;;;;;5203346;28;20025;-76
2020/12/28 01:17:08;;;;;;;0.38;0.30;;;19.50;42.80;;;;;;5202558;28;20171;-77
2020/12/28 01:19:39;;;;;;;0.40;0.40;;;19.50;42.90;;;;;;5207311;28;20067;-76
2020/12/28 01:22:10;;;;;;;0.40;0.40;;;19.50;42.80;;;;;;5214479;28;20489;-77
2020/12/28 01:24:40;;;;;;;0.35;0.32;;;19.50;42.80;;;;;;5203098;28;20164;-76
2020/12/28 01:27:11;;;;;;;0.40;0.40;;;19.50;42.90;;;;;;5194649;28;20036;-76
2020/12/28 01:29:41;;;;;;;0.88;0.43;;;19.50;42.90;;;;;;5223929;28;20025;-76
2020/12/28 01:32:12;;;;;;;0.70;0.50;;;19.50;42.90;;;;;;5205582;28;20032;-76
2020/12/28 01:34:42;;;;;;;0.40;0.40;;;19.50;42.90;;;;;;5206810;28;20074;-76
2020/12/28 01:37:13;;;;;;;0.40;0.40;;;19.50;42.90;;;;;;5216777;28;20029;-76
2020/12/28 01:39:43;;;;;;;0.40;0.40;;;19.50;43.00;;;;;;5207414;28;20030;-76
2020/12/28 01:42:14;;;;;;;0.40;0.40;;;19.50;42.90;;;;;;5198893;28;20541;-76
2020/12/28 01:44:44;;;;;;;0.30;0.30;;;19.50;43.00;;;;;;5211196;28;20037;-76
2020/12/28 01:47:15;;;;;;;0.40;0.40;;;19.50;43.10;;;;;;5209736;28;20434;-76
2020/12/28 01:49:45;;;;;;;0.40;0.40;;;19.50;43.10;;;;;;5227677;28;20037;-76
2020/12/28 01:52:16;;;;;;;0.50;0.50;;;19.50;43.00;;;;;;5210194;28;20025;-76
2020/12/28 01:54:46;;;;;;;0.40;0.32;;;19.50;43.00;;;;;;5210856;28;20029;-76
2020/12/28 01:57:17;;;;;;;0.55;0.43;;;19.50;43.00;;;;;;5217471;28;20033;-76
2020/12/28 01:59:47;;;;;;;0.40;0.40;;;19.50;42.90;;;;;;5206902;28;20036;-77
2020/12/28 02:02:18;;;;;;;0.40;0.40;;;19.50;42.90;;;;;;5214396;28;20454;-76
2020/12/28 02:04:49;;;;;;;0.50;0.40;;;19.50;42.90;;;;;;5206874;28;20036;-76
2020/12/28 02:07:19;;;;;;;0.40;0.40;;;19.50;42.90;;;;;;5216115;28;20029;-76
2020/12/28 02:09:50;;;;;;;0.40;0.40;;;19.50;42.90;;;;;;5227501;28;20075;-76
2020/12/28 02:12:20;;;;;;;0.30;0.30;;;19.50;42.90;;;;;;5226214;28;20037;-76
2020/12/28 02:14:51;;;;;;;0.40;0.40;;;19.50;42.90;;;;;;5210475;28;20112;-77
2020/12/28 02:17:23;;;;;;;0.75;0.50;;;19.50;42.90;;;;;;5217249;28;20568;-76
2020/12/28 02:19:53;;;;;;;0.88;0.55;;;19.50;42.90;;;;;;5227183;28;20101;-76
2020/12/28 02:22:24;;;;;;;0.47;0.47;;;19.50;42.90;;;;;;5215727;28;20470;-76
2020/12/28 02:24:54;;;;;;;0.40;0.32;;;19.50;42.90;;;;;;5189751;28;20032;-76
2020/12/28 02:27:25;;;;;;;0.40;0.40;;;19.50;43.00;;;;;;5205789;28;20038;-76
2020/12/28 02:29:55;;;;;;;0.30;0.30;;;19.50;43.00;;;;;;5206386;28;20071;-76
2020/12/28 02:32:26;;;;;;;0.40;0.32;;;19.50;43.00;;;;;;5213736;28;20381;-76
2020/12/28 02:34:56;;;;;;;0.40;0.40;;;19.50;43.00;;;;;;5206187;28;20038;-76
2020/12/28 02:37:27;;;;;;;0.40;0.40;;;19.50;43.00;;;;;;5199759;28;20116;-76
2020/12/28 02:39:57;;;;;;;0.47;0.40;;;19.50;43.00;;;;;;5210152;28;20082;-76
2020/12/28 02:42:28;;;;;;;0.40;0.40;;;19.50;43.00;;;;;;5214861;28;20033;-76
2020/12/28 02:44:58;;;;;;;0.50;0.43;;;19.50;43.00;;;;;;5205999;28;20100;-76
2020/12/28 02:47:29;;;;;;;0.30;0.30;;;19.50;43.00;;;;;;5207901;28;20040;-76
2020/12/28 02:49:59;;;;;;;0.40;0.40;;;19.50;43.00;;;;;;5209590;28;20036;-76
2020/12/28 02:52:30;;;;;;;0.32;0.30;;;19.50;43.00;;;;;;5209079;28;20381;-76
2020/12/28 02:55:00;;;;;;;0.32;0.30;;;19.50;42.90;;;;;;5226282;28;20059;-76
2020/12/28 02:57:31;;;;;;;0.45;0.40;;;19.50;43.00;;;;;;5197679;28;20037;-76
2020/12/28 03:00:02;;;;;;;0.80;0.35;;;19.50;43.00;;;;;;5190530;28;20542;-76
2020/12/28 03:02:32;;;;;;;0.30;0.30;;;19.50;42.90;;;;;;5196173;28;20120;-76
2020/12/28 03:05:03;;;;;;;0.30;0.30;;;19.50;42.90;;;;;;5189081;28;20460;-76
2020/12/28 03:07:33;;;;;;;0.68;0.50;;;19.50;42.90;;;;;;5216950;28;20044;-76
2020/12/28 03:10:04;;;;;;;0.60;0.30;;;19.50;42.90;;;;;;5226334;28;20056;-76
2020/12/28 03:12:34;;;;;;;0.40;0.40;;;19.50;43.00;;;;;;5225273;28;20115;-76
2020/12/28 03:15:05;;;;;;;0.60;0.50;;;19.50;42.90;;;;;;5225044;28;20074;-76
2020/12/28 03:17:35;;;;;;;0.35;0.35;;;19.50;42.90;;;;;;5213519;28;20029;-76
2020/12/28 03:20:06;;;;;;;0.57;0.47;;;19.50;43.00;;;;;;5205277;28;20109;-76
2020/12/28 03:22:36;;;;;;;0.30;0.30;;;19.50;42.90;;;;;;5187883;28;20029;-76
2020/12/28 03:25:07;;;;;;;0.30;0.30;;;19.50;43.00;;;;;;5205382;28;20043;-76
2020/12/28 03:27:37;;;;;;;0.50;0.50;;;19.50;43.00;;;;;;5187974;28;20038;-76
2020/12/28 03:30:08;;;;;;;0.40;0.30;;;19.50;43.00;;;;;;5188560;28;20061;-76
2020/12/28 03:32:38;;;;;;;0.40;0.40;;;19.50;43.10;;;;;;5208141;28;20560;-76
2020/12/28 03:35:09;;;;;;;0.43;0.43;;;19.50;43.10;;;;;;5208943;28;20033;-76
2020/12/28 03:37:39;;;;;;;0.45;0.45;;;19.50;43.10;;;;;;5208311;28;20419;-76
2020/12/28 03:40:10;;;;;;;1.08;0.38;;;19.50;43.10;;;;;;5225544;28;20025;-76
2020/12/28 03:42:40;;;;;;;0.50;0.40;;;19.50;43.10;;;;;;5207860;28;20029;-76
2020/12/28 03:45:11;;;;;;;0.40;0.40;;;19.50;43.10;;;;;;5224802;28;20017;-75
2020/12/28 03:47:41;;;;;;;0.30;0.30;;;19.50;43.20;;;;;;5212035;28;20057;-76
2020/12/28 03:50:12;;;;;;;0.40;0.40;;;19.50;43.20;;;;;;5204460;28;20064;-76
2020/12/28 03:52:42;;;;;;;0.40;0.40;;;19.50;43.10;;;;;;5200205;28;20627;-76
2020/12/28 03:55:13;;;;;;;0.30;0.30;;;19.50;43.10;;;;;;5225175;28;20074;-76
2020/12/28 03:57:43;;;;;;;0.45;0.32;;;19.50;43.10;;;;;;5207829;28;20104;-76
2020/12/28 04:00:14;;;;;;;0.50;0.40;;;19.50;43.10;;;;;;5223494;28;20021;-76
2020/12/28 04:02:44;;;;;;;0.40;0.30;;;19.50;43.10;;;;;;5207597;28;20021;-76
2020/12/28 04:05:15;;;;;;;0.40;0.40;;;19.50;43.10;;;;;;5224982;28;20055;-76
2020/12/28 04:07:45;;;;;;;0.40;0.38;;;19.50;43.00;;;;;;5224531;28;20029;-77
2020/12/28 04:10:16;;;;;;;0.45;0.30;;;19.50;43.10;;;;;;5208394;28;20024;-76
2020/12/28 04:12:46;;;;;;;0.35;0.32;;;19.50;43.10;;;;;;5207428;28;20041;-76
2020/12/28 04:15:17;;;;;;;0.43;0.40;;;19.50;43.10;;;;;;5224027;28;20098;-76
2020/12/28 04:17:47;;;;;;;0.40;0.40;;;19.50;43.00;;;;;;5207563;28;20033;-76
2020/12/28 04:20:18;;;;;;;0.32;0.32;;;19.50;43.10;;;;;;5224740;28;20028;-76
2020/12/28 04:22:48;;;;;;;0.30;0.30;;;19.50;43.10;;;;;;5207534;28;20407;-77
2020/12/28 04:25:19;;;;;;;0.40;0.40;;;19.50;43.20;;;;;;5224677;28;20025;-76
2020/12/28 04:27:49;;;;;;;0.50;0.40;;;19.50;43.20;;;;;;5209862;28;20064;-76
2020/12/28 04:30:20;;;;;;;0.30;0.30;;;19.50;43.20;;;;;;5189108;28;20495;-76
2020/12/28 04:32:51;;;;;;;0.40;0.40;;;19.50;43.20;;;;;;5223760;28;20063;-76
2020/12/28 04:35:21;;;;;;;0.30;0.30;;;19.50;43.30;;;;;;5224398;28;20033;-76
2020/12/28 04:37:52;;;;;;;0.40;0.40;;;19.50;43.30;;;;;;5223820;28;20029;-76
2020/12/28 04:40:22;;;;;;;0.43;0.43;;;19.50;43.30;;;;;;5224093;28;20047;-76
2020/12/28 04:42:53;;;;;;;0.30;0.30;;;19.50;43.30;;;;;;5223401;28;20044;-76
2020/12/28 04:45:23;;;;;;;1.00;0.45;;;19.50;43.40;;;;;;5207122;28;20037;-76
2020/12/28 04:47:54;;;;;;;0.30;0.30;;;19.50;43.30;;;;;;5206978;28;20037;-76
2020/12/28 04:50:25;;;;;;;0.68;0.30;;;19.50;43.30;;;;;;5207514;28;20020;-76
2020/12/28 04:52:55;;;;;;;0.30;0.30;;;19.50;43.30;;;;;;5206557;28;20037;-76
2020/12/28 04:55:26;;;;;;;0.30;0.30;;;19.50;43.30;;;;;;5223929;28;20051;-76
2020/12/28 04:57:57;;;;;;;0.40;0.35;;;19.50;43.30;;;;;;5206751;28;20064;-76
2020/12/28 05:00:27;;;;;;;0.40;0.40;;;19.50;43.30;;;;;;5223002;28;20025;-76
2020/12/28 05:02:59;;;;;;;0.50;0.30;;;19.50;43.30;;;;;;5206728;28;20029;-76
2020/12/28 05:05:29;;;;;;;0.30;0.30;;;19.50;43.20;;;;;;5207247;28;20013;-76
2020/12/28 05:08:00;;;;;;;0.40;0.40;;;19.50;43.30;;;;;;5223684;28;20041;-76
2020/12/28 05:10:30;;;;;;;0.35;0.30;;;19.50;43.30;;;;;;5223688;28;20503;-76
2020/12/28 05:13:08;;;;;;;0.40;0.40;;;19.50;43.30;;;;;;5206301;28;20033;-76
2020/12/28 05:15:51;;;;;;;0.40;0.30;;;19.50;43.30;;;;;;5201562;28;20033;-76
2020/12/28 05:18:22;;;;;;;0.30;0.30;;;19.50;43.30;;;;;;5204461;28;20033;-76
2020/12/28 05:20:52;;;;;;;0.30;0.30;;;19.50;43.30;;;;;;5223607;28;20063;-75
2020/12/28 05:23:23;;;;;;;0.30;0.30;;;19.50;44.00;;;;;;5223103;28;20029;-76
2020/12/28 05:25:53;;;;;;;0.30;0.30;;;19.50;43.40;;;;;;5206967;28;20024;-76
2020/12/28 05:28:27;;;;;;;0.28;0.28;;;19.50;43.40;;;;;;5206259;28;20033;-76
2020/12/28 05:30:59;;;;;;;0.30;0.30;;;19.50;43.40;;;;;;5198786;28;20099;-75
2020/12/28 05:33:33;;;;;;;0.30;0.30;;;19.50;43.40;;;;;;5205401;28;20033;-76
2020/12/28 05:36:03;;;;;;;0.40;0.40;;;19.50;43.40;;;;;;5206847;28;20025;-76
2020/12/28 05:38:34;;;;;;;0.30;0.30;;;19.50;43.50;;;;;;5202747;28;20180;-76
2020/12/28 05:41:05;;;;;;;0.85;0.30;;;19.50;43.50;;;;;;5186139;28;20053;-76
2020/12/28 05:43:35;;;;;;;0.30;0.30;;;19.50;43.40;;;;;;5205956;28;20614;-76
2020/12/28 05:46:06;;;;;;;0.30;0.30;;;19.50;43.40;;;;;;5222659;28;20032;-76
2020/12/28 05:48:36;;;;;;;0.30;0.30;;;19.50;43.40;;;;;;5205961;28;20038;-76
2020/12/28 05:51:07;;;;;;;0.25;0.25;;;19.50;43.40;;;;;;5222979;28;20025;-76
2020/12/28 05:53:38;;;;;;;0.40;0.40;;;19.50;43.40;;;;;;5202455;28;20176;-76
2020/12/28 05:56:09;;;;;;;0.75;0.30;;;19.50;43.40;;;;;;5186194;28;20505;-75
2020/12/28 05:58:42;;;;;;;0.35;0.30;;;19.50;43.40;;;;;;5223373;28;20040;-76
2020/12/28 06:01:13;;;;;;;0.30;0.30;;;19.50;43.40;;;;;;5221903;28;20391;-77
2020/12/28 06:03:43;;;;;;;0.20;0.20;;;19.50;43.40;;;;;;5223143;28;20033;-76
2020/12/28 06:06:15;;;;;;;0.40;0.30;;;19.50;43.40;;;;;;5222704;28;20091;-76
2020/12/28 06:08:45;;;;;;;0.30;0.30;;;19.50;43.40;;;;;;5223068;28;20021;-76
2020/12/28 06:11:19;;;;;;;0.82;0.32;;;19.50;43.40;;;;;;5205557;28;20025;-76
2020/12/28 06:13:50;;;;;;;0.40;0.40;;;19.50;43.50;;;;;;5206516;28;20487;-75
2020/12/28 06:16:23;;;;;;;0.32;0.30;;;19.50;43.50;;;;;;5205111;28;20047;-75
2020/12/28 06:18:55;;;;;;;0.30;0.30;;;19.50;43.50;;;;;;5222988;28;20028;-75
2020/12/28 06:21:34;;;;;;;0.30;0.30;;;19.50;43.60;;;;;;5222137;28;20032;-75
2020/12/28 06:24:05;;;;;;;0.40;0.40;;;19.50;43.60;;;;;;5225462;28;20514;-76
2020/12/28 06:26:35;;;;;;;0.30;0.30;;;19.50;43.60;;;;;;5226155;28;20045;-76
2020/12/28 06:29:06;;;;;;;0.20;0.20;;;19.50;43.60;;;;;;5210330;28;20403;-76
2020/12/28 06:31:37;;;;;;;0.20;0.20;;;19.50;43.60;;;;;;5225499;28;20037;-76
2020/12/28 06:34:16;;;;;;;0.40;0.30;;;19.50;43.70;;;;;;5226902;28;20028;-76
2020/12/28 06:36:57;;;;;;;0.20;0.20;;;19.40;43.60;;;;;;5221055;28;20498;-76
2020/12/28 06:39:28;;;;;;;0.30;0.30;;;19.50;43.60;;;;;;5189768;28;20128;-76
2020/12/28 06:42:15;;;;;;;0.40;0.30;;;19.40;43.60;;;;;;5212202;28;20093;-76
2020/12/28 06:44:45;;;;;;;0.20;0.20;;;19.50;43.60;;;;;;5226813;28;20051;-76
2020/12/28 06:47:30;;;;;;;0.32;0.32;;;19.40;43.50;;;;;;5225451;28;20503;-76
2020/12/28 06:50:00;;;;;;;0.30;0.30;;;19.50;43.60;;;;;;5210033;28;20487;-76
2020/12/28 06:52:31;;;;;;;0.30;0.22;;;19.50;43.50;;;;;;5208899;28;20033;-76
2020/12/28 06:55:08;;;;;;;0.30;0.30;;;19.50;43.60;;;;;;5226581;28;20037;-77
2020/12/28 06:57:39;;;;;;;0.55;0.30;;;19.50;43.50;;;;;;5196703;28;20444;-76
2020/12/28 07:00:18;;;;;;;0.68;0.43;;;19.50;43.60;;;;;;5189552;28;20060;-76
2020/12/28 07:02:49;;;;;;;0.40;0.40;;;19.50;43.50;;;;;;5225420;28;20029;-76
2020/12/28 07:05:24;;;;;;;0.30;0.30;;;19.50;43.60;;;;;;5209524;28;20574;-76
2020/12/28 07:07:55;;;;;;;0.30;0.30;;;19.50;43.60;;;;;;5210897;28;20116;-76
2020/12/28 07:10:26;;;;;;;0.30;0.30;;;19.50;43.60;;;;;;5188586;28;20039;-76
2020/12/28 07:13:06;;;;;;;0.52;0.30;;;19.50;43.60;;;;;;5219426;28;20194;-76
2020/12/28 07:15:37;;;;;;;0.32;0.30;;;19.50;43.70;;;;;;5208604;28;20099;-76
2020/12/28 07:18:10;;;;;;;0.68;0.40;;;19.50;43.70;;;;;;5208667;28;20037;-76
2020/12/28 07:20:41;;;;;;;0.30;0.30;;;19.50;43.70;;;;;;5209010;28;20067;-76
2020/12/28 07:23:12;;;;;;;0.30;0.30;;;19.50;43.70;;;;;;5191506;28;20026;-77
2020/12/28 07:25:42;;;;;;;0.20;0.20;;;19.50;43.70;;;;;;5188441;28;20021;-76
2020/12/28 07:28:12;;;;;;;0.38;0.38;;;19.50;43.70;;;;;;5221733;28;20086;-76
2020/12/28 07:30:43;;;;;;;0.30;0.25;;;19.50;43.70;;;;;;5208194;28;20117;-76
2020/12/28 07:33:13;;;;;;;0.20;0.20;;;19.50;43.70;;;;;;5190864;28;20030;-76
2020/12/28 07:35:44;;;;;;;0.30;0.30;;;19.40;43.70;;;;;;5188210;28;20026;-76
2020/12/28 07:38:14;;;;;;;0.38;0.30;;;19.50;43.70;;;;;;5205245;28;20025;-76
2020/12/28 07:40:54;;;;;;;0.30;0.30;;;19.40;43.70;;;;;;5208876;28;20072;-76
2020/12/28 07:43:24;;;;;;;0.30;0.30;;;19.50;43.70;;;;;;5206135;28;20029;-76
2020/12/28 07:46:08;;;;;;;0.50;0.40;;;19.50;43.70;;;;;;5194613;28;20373;-76
2020/12/28 07:48:38;;;;;;;0.32;0.32;;;19.50;43.70;;;;;;5188105;28;20053;-77
2020/12/28 07:51:09;;;;;;;0.25;0.25;;;19.50;43.60;;;;;;5204398;28;20812;-76
2020/12/28 07:53:41;;;;;;;1.00;0.50;;;19.50;43.70;;;;;;5225101;28;20040;-76
2020/12/28 07:56:20;;;;;;;0.30;0.30;;;19.50;43.60;;;;;;5224618;28;20029;-76
2020/12/28 07:59:07;;;;;;;0.70;0.30;;;19.50;43.60;;;;;;5225218;28;20021;-76
2020/12/28 08:01:42;;;;;;;1.75;0.30;;;19.50;43.60;;;;;;5214948;28;20083;-76
2020/12/28 08:04:17;;;;;;;0.50;0.40;;;19.50;43.60;;;;;;5225198;28;20013;-76
2020/12/28 08:06:47;;;;;;;0.30;0.30;;;19.50;43.60;;;;;;5207672;28;20025;-76
2020/12/28 08:09:21;;;;;;;0.38;0.38;;;19.50;43.70;;;;;;5225145;28;20263;-76
2020/12/28 08:12:01;;;;;;;0.45;0.32;;;19.50;43.70;;;;;;5207337;28;20057;-76
2020/12/28 08:14:31;;;;;;;0.47;0.45;;;19.50;43.70;;;;;;5208221;28;20074;-76
2020/12/28 08:17:09;;;;;;;0.40;0.40;;;19.40;43.60;;;;;;5223338;28;20511;-76
2020/12/28 08:19:39;;;;;;;0.32;0.30;;;19.50;43.70;;;;;;5224882;28;20376;-76
2020/12/28 08:22:22;;;;;;;0.80;0.45;;;19.40;43.70;;;;;;5207265;28;20033;-76
2020/12/28 08:25:05;;;;;;;0.40;0.30;;;19.50;43.70;;;;;;5208119;28;20017;-76
2020/12/28 08:27:36;;;;;;;0.40;0.40;;;19.40;43.70;;;;;;5211795;28;20155;-76
2020/12/28 08:30:09;;;;;;;0.40;0.40;;;19.40;43.60;;;;;;5203818;28;20488;-77
2020/12/28 08:32:40;;;;;;;0.80;0.50;;;19.40;43.60;;;;;;5223690;28;20032;-76
2020/12/28 08:35:10;;;;;;;1.48;0.40;;;19.40;43.70;;;;;;5224625;28;20103;-76
2020/12/28 08:37:48;;;;;;;0.30;0.30;;;19.40;43.60;;;;;;5207121;28;20032;-77
2020/12/28 08:40:20;;;;;;;0.35;0.35;;;19.40;43.60;;;;;;5224624;28;20017;-75
2020/12/28 08:42:57;;;;;;;2.08;0.50;;;19.40;43.60;;;;;;5209350;28;20034;-76
2020/12/28 08:45:27;;;;;;;0.60;0.40;;;19.40;43.60;;;;;;5205859;28;20040;-75
2020/12/28 08:47:58;;;;;;;0.50;0.50;;;19.50;43.60;;;;;;5223502;28;20045;-75
2020/12/28 08:50:35;;;;;;;0.40;0.30;;;19.50;43.60;;;;;;5207346;28;20021;-76
2020/12/28 08:53:05;;;;;;;0.40;0.40;;;19.50;43.50;;;;;;5206641;28;20060;-75
2020/12/28 08:55:36;;;;;;;0.60;0.55;;;19.50;43.50;;;;;;5223774;28;20092;-76
2020/12/28 08:58:06;;;;;;;0.60;0.50;;;19.50;43.50;;;;;;5223695;28;20497;-76
2020/12/28 09:00:37;;;;;;;0.60;0.60;;;19.50;43.50;;;;;;5206825;28;20032;-77
2020/12/28 09:03:08;;;;;;;0.45;0.45;;;19.50;43.50;;;;;;5206911;28;20084;-76
2020/12/28 09:05:39;;;;;;;0.73;0.60;;;19.40;43.50;;;;;;5203315;28;20490;-76
2020/12/28 09:08:09;;;;;;;0.40;0.40;;;19.40;43.50;;;;;;5203071;28;20072;-76
2020/12/28 09:10:40;;;;;;;0.55;0.35;;;19.40;43.50;;;;;;5207298;28;20214;-76
2020/12/28 09:13:10;;;;;;;0.60;0.45;;;19.40;43.50;;;;;;5206304;28;20120;-76
2020/12/28 09:15:41;;;;;;;0.52;0.50;;;19.40;43.60;;;;;;5218184;28;20031;-76
2020/12/28 09:18:11;;;;;;;0.47;0.47;;;19.40;43.60;;;;;;5219586;28;20499;-76
2020/12/28 09:20:42;;;;;;;0.60;0.50;;;19.40;43.60;;;;;;5223879;28;20025;-76
2020/12/28 09:23:12;;;;;;;0.70;0.47;;;19.40;43.60;;;;;;5223134;28;20702;-76
2020/12/28 09:25:43;;;;;;;0.60;0.50;;;19.40;43.60;;;;;;5223671;28;20116;-76
2020/12/28 09:28:13;;;;;;;0.98;0.70;;;19.40;43.60;;;;;;5206769;28;20133;-76
2020/12/28 09:30:44;;;;;;;0.90;0.70;;;19.40;43.60;;;;;;5206576;28;20037;-76
2020/12/28 09:33:14;;;;;;;0.77;0.70;;;19.40;43.60;;;;;;5205536;28;20040;-76
2020/12/28 09:35:45;;;;;;;1.15;0.70;;;19.40;43.60;;;;;;5186522;28;20399;-76
2020/12/28 09:38:15;;;;;;;1.10;0.68;;;19.40;43.50;;;;;;5220010;28;20033;-76
2020/12/28 09:40:46;;;;;;;0.90;0.52;;;19.40;44.10;;;;;;5223668;28;20025;-76
2020/12/28 09:43:16;;;;;;;0.70;0.70;;;19.40;43.40;;;;;;5205171;28;20053;-76
2020/12/28 09:45:47;;;;;;;0.82;0.70;;;19.50;43.40;;;;;;5201667;28;20071;-76
2020/12/28 09:48:17;;;;;;;0.90;0.70;;;19.40;43.40;;;;;;5203638;28;20112;-76
2020/12/28 09:50:48;;;;;;;0.73;0.70;;;19.40;43.40;;;;;;5223273;28;20033;-76
2020/12/28 09:53:18;;;;;;;1.35;0.70;;;19.40;43.40;;;;;;5206121;28;20108;-76
2020/12/28 09:55:49;;;;;;;0.90;0.73;;;19.40;43.40;;;;;;5223502;28;20487;-76
2020/12/28 09:58:19;;;;;;;0.50;0.50;;;19.40;43.40;;;;;;5206215;28;20044;-76
2020/12/28 10:00:50;;;;;;;0.73;0.60;;;19.40;43.40;;;;;;5212722;28;20384;-76
2020/12/28 10:03:20;;;;;;;0.80;0.70;;;19.40;43.40;;;;;;5226389;28;20029;-76
2020/12/28 10:05:51;;;;;;;0.93;0.70;;;19.40;43.40;;;;;;5210557;28;20033;-76
2020/12/28 10:08:21;;;;;;;0.80;0.75;;;19.50;43.50;;;;;;5210214;28;20511;-76
2020/12/28 10:10:52;;;;;;;0.52;0.50;;;19.40;43.40;;;;;;5227151;28;20025;-75
2020/12/28 10:13:22;;;;;;;0.90;0.80;;;19.40;43.50;;;;;;5191680;28;20033;-76
2020/12/28 10:15:53;;;;;;;0.90;0.80;;;19.40;43.50;;;;;;5195933;28;20451;-76
2020/12/28 10:18:23;;;;;;;0.70;0.60;;;19.40;43.50;;;;;;5210180;28;20041;-76
2020/12/28 10:20:54;;;;;;;1.48;0.88;;;19.40;43.60;;;;;;5226737;28;20033;-77
2020/12/28 10:23:24;;;;;;;0.90;0.70;;;19.40;43.50;;;;;;5207758;28;20091;-76
2020/12/28 10:25:55;;;;;;;0.93;0.80;;;19.40;43.50;;;;;;5206360;28;20068;-76
2020/12/28 10:28:25;;;;;;;0.95;0.80;;;19.40;43.60;;;;;;5207970;28;20039;-76
2020/12/28 10:30:56;;;;;;;2.45;1.13;;;19.40;43.50;;;;;;5202528;28;20554;-76
2020/12/28 10:33:26;;;;;;;1.35;1.00;;;19.40;43.50;;;;;;5224781;28;20388;-76
2020/12/28 10:35:58;;;;;;;1.02;0.90;;;19.40;43.50;;;;;;5226803;28;20035;-76
2020/12/28 10:38:28;;;;;;;1.30;0.80;;;19.40;43.40;;;;;;5226331;28;20033;-76
2020/12/28 10:40:59;;;;;;;1.25;0.90;;;19.40;43.50;;;;;;5226619;28;20035;-76
2020/12/28 10:43:29;;;;;;;1.40;1.20;;;19.40;43.40;;;;;;5226257;28;20407;-76
2020/12/28 10:46:02;;;;;;;1.13;1.02;;;19.40;43.40;;;;;;5225962;28;20041;-76
2020/12/28 10:48:33;;;;;;;1.20;0.88;;;19.40;43.40;;;;;;5226195;28;20117;-76
2020/12/28 10:51:03;;;;;;;1.00;0.90;;;19.40;43.40;;;;;;5209643;28;20116;-75
2020/12/28 10:53:34;;;;;;;1.00;0.90;;;19.40;43.40;;;;;;5205842;28;20052;-76
2020/12/28 10:56:07;;;;;;;1.42;0.90;;;19.40;43.40;;;;;;5205929;28;20060;-76
2020/12/28 10:58:38;;;;;;;1.48;1.02;;;19.40;43.50;;;;;;5225701;28;20415;-76
2020/12/28 11:01:09;;;;;;;1.70;1.30;;;19.40;43.50;;;;;;5208295;28;20032;-76
2020/12/28 11:03:39;;;;;;;1.10;1.00;;;19.40;43.50;;;;;;5225868;28;20115;-76
2020/12/28 11:06:10;;;;;;;1.25;1.00;;;19.40;43.50;;;;;;5226082;28;20029;-77
2020/12/28 11:08:40;;;;;;;1.95;1.00;;;19.40;43.60;;;;;;5225280;28;20479;-76
2020/12/28 11:11:11;;;;;;;1.35;1.02;;;19.40;43.60;;;;;;5208601;28;20036;-76
2020/12/28 11:13:41;;;;;;;1.10;0.90;;;19.40;43.60;;;;;;5209423;28;20025;-76
2020/12/28 11:16:12;;;;;;;1.38;1.20;;;19.40;43.60;;;;;;5199450;28;20030;-77
2020/12/28 11:18:42;;;;;;;1.00;0.90;;;19.40;43.60;;;;;;5225776;28;20060;-76
2020/12/28 11:21:13;;;;;;;1.63;1.00;;;19.40;43.60;;;;;;5225163;28;20547;-75
2020/12/28 11:23:59;;;;;;;1.30;1.10;;;19.40;43.50;;;;;;5226145;28;20017;-76
2020/12/28 11:26:33;;;;;;;1.20;1.10;;;19.40;43.60;;;;;;5227269;28;20044;-76
2020/12/28 11:29:05;;;;;;;1.15;0.98;;;19.40;43.60;;;;;;5225938;28;20028;-76
2020/12/28 11:31:35;;;;;;;1.85;1.10;;;19.40;43.50;;;;;;5224368;28;20025;-76
2020/12/28 11:34:06;;;;;;;1.13;1.02;;;19.40;43.50;;;;;;5208983;28;20029;-76
2020/12/28 11:36:36;;;;;;;1.45;1.02;;;19.40;43.50;;;;;;5225247;28;20029;-76
2020/12/28 11:39:07;;;;;;;1.13;0.93;;;19.40;43.50;;;;;;5225529;28;20032;-76
2020/12/28 11:41:38;;;;;;;1.65;0.90;;;19.40;43.50;;;;;;5204139;28;20620;-76
2020/12/28 11:44:12;;;;;;;2.05;1.20;;;19.40;43.50;;;;;;5188546;28;20018;-75
2020/12/28 11:46:42;;;;;;;1.10;1.00;;;19.40;43.50;;;;;;5212819;28;20034;-76
2020/12/28 11:49:13;;;;;;;1.00;0.90;;;19.40;43.60;;;;;;5205010;28;20058;-76
2020/12/28 11:51:43;;;;;;;1.85;1.00;;;19.40;43.50;;;;;;5208694;28;20037;-77
2020/12/28 11:54:14;;;;;;;1.58;1.17;;;19.40;43.50;;;;;;5225358;28;20045;-76
2020/12/28 11:56:45;;;;;;;3.17;0.80;;;19.40;43.50;;;;;;5219795;28;20712;-76
2020/12/28 11:59:15;;;;;;;1.00;0.90;;;19.40;43.50;;;;;;5204729;28;20140;-76
2020/12/28 12:01:47;;;;;;;1.10;1.00;;;19.40;43.50;;;;;;5200631;28;20040;-76
2020/12/28 12:04:17;;;;;;;1.45;1.30;;;19.40;43.50;;;;;;5224921;28;20021;-76
2020/12/28 12:06:52;;;;;;;2.25;1.13;;;19.40;43.50;;;;;;5207872;28;20077;-76
2020/12/28 12:09:22;;;;;;;1.50;1.30;;;19.40;43.60;;;;;;5225377;28;20112;-76
2020/12/28 12:11:53;;;;;;;1.13;0.95;;;19.40;43.60;;;;;;5217987;28;20380;-76
2020/12/28 12:14:23;;;;;;;1.10;1.00;;;19.40;43.60;;;;;;5187815;28;20037;-76
2020/12/28 12:16:54;;;;;;;1.52;1.20;;;19.40;43.60;;;;;;5212075;28;20618;-76
2020/12/28 12:19:24;;;;;;;1.30;1.10;;;19.40;43.60;;;;;;5187888;28;20033;-76
2020/12/28 12:21:55;;;;;;;0.93;0.90;;;19.40;43.60;;;;;;5192516;28;20025;-76
2020/12/28 12:24:25;;;;;;;1.60;1.05;;;19.40;43.70;;;;;;5224817;28;20029;-76
2020/12/28 12:26:56;;;;;;;2.33;1.15;;;19.40;43.70;;;;;;5200781;28;20550;-76
2020/12/28 12:29:26;;;;;;;1.55;1.00;;;19.40;43.70;;;;;;5187740;28;20029;-76
2020/12/28 12:31:57;;;;;;;1.10;1.00;;;19.40;43.60;;;;;;5201692;28;20579;-76
2020/12/28 12:34:27;;;;;;;1.40;1.17;;;19.40;43.70;;;;;;5224682;28;20045;-76
2020/12/28 12:36:58;;;;;;;1.50;1.02;;;19.40;43.60;;;;;;5207507;28;20490;-76
2020/12/28 12:39:29;;;;;;;2.65;1.10;;;19.40;43.60;;;;;;5207730;28;20021;-76
2020/12/28 12:42:00;;;;;;;1.42;1.10;;;19.40;43.60;;;;;;5200007;28;20026;-76
2020/12/28 12:44:30;;;;;;;1.10;1.00;;;19.40;43.60;;;;;;5187490;28;20032;-76
2020/12/28 12:47:01;;;;;;;1.13;1.02;;;19.40;43.60;;;;;;5211326;28;20041;-76
2020/12/28 12:49:31;;;;;;;1.00;0.90;;;19.40;43.60;;;;;;5187222;28;20029;-76
2020/12/28 12:52:15;;;;;;;1.10;1.00;;;19.40;43.60;;;;;;5210183;28;20067;-76
2020/12/28 12:54:45;;;;;;;1.52;1.00;;;19.40;43.60;;;;;;5224186;28;20028;-76
2020/12/28 12:57:17;;;;;;;1.35;1.00;;;19.40;43.60;;;;;;5214260;28;20036;-76
2020/12/28 13:02:40;;;;;;;1.33;1.00;;;19.40;43.70;;;;;;5213792;28;20033;-76
2020/12/28 13:05:11;;;;;;;1.27;1.10;;;19.40;43.60;;;;;;5224132;28;20092;-77
2020/12/28 13:07:42;;;;;;;1.10;0.90;;;19.40;43.70;;;;;;5210705;28;20514;-76
2020/12/28 13:10:12;;;;;;;1.20;1.00;;;19.40;43.70;;;;;;5187075;28;20029;-76
2020/12/28 13:12:43;;;;;;;1.10;0.82;;;19.40;43.70;;;;;;5199046;28;20048;-76